sensor_id;sensor_type;location;lat;lon;timestamp;pressure;altitude;pressure_sealevel;temperature;humidity
68320;BME280;55168;51.120;17.024;2023-04-20T00:00:00;100540;;;5.1;100.0
68320;BME280;55168;51.120;17.024;2023-04-20T00:01:00;100540;;;5.2;100.0
68320;BME280;55168;51.120;17.024;2023-04-20T00:02:00;100540;;;5.2;100.0
68320;BME280;55168;51.120;17.024;2023-04-20T00:03:00;100530;;;5.2;100.0
68320;BME280;55168;51.120;17.024;2023-04-20T00:04:00;100530;;;5.2;100.0
68320;BME280;55168;51.120;17.024;2023-04-20T00:05:00;100530;;;5.2;100.0
68320;BME280;55168;51.120;17.024;2023-04-20T00:06:00;100520;;;5.2;100.0
68320;BME280;55168;51.120;17.024;2023-04-20T00:07:00;100530;;;5.2;100.0
68320;BME280;55168;51.120;17.024;2023-04-20T00:08:00;100520;;;5.2;100.0
68320;BME280;55168;51.120;17.024;2023-04-20T00:09:00;100520;;;5.2;100.0
68320;BME280;55168;51.120;17.024;2023-04-20T00:10:00;100520;;;5.1;100.0
68320;BME280;55168;51.120;17.024;2023-04-20T00:11:00;100520;;;5.1;100.0
68320;BME280;55168;51.120;17.024;2023-04-20T00:12:00;100530;;;5.1;100.0
68320;BME280;55168;51.120;17.024;2023-04-20T00:13:00;100530;;;5.1;100.0
68320;BME280;55168;51.120;17.024;2023-04-20T00:14:00;100530;;;5.2;100.0
68320;BME280;55168;51.120;17.024;2023-04-20T00:15:00;100520;;;5.1;100.0
68320;BME280;55168;51.120;17.024;2023-04-20T00:16:00;100520;;;5.1;100.0
68320;BME280;55168;51.120;17.024;2023-04-20T00:17:00;100520;;;5.1;100.0
68320;BME280;55168;51.120;17.024;2023-04-20T00:18:00;100520;;;5.1;100.0
68320;BME280;55168;51.120;17.024;2023-04-20T00:19:00;100520;;;5.1;100.0
68320;BME280;55168;51.120;17.024;2023-04-20T00:20:00;100520;;;5.1;100.0
68320;BME280;55168;51.120;17.024;2023-04-20T00:21:00;100520;;;5.1;100.0
68320;BME280;55168;51.120;17.024;2023-04-20T00:22:00;100520;;;5.1;100.0
68320;BME280;55168;51.120;17.024;2023-04-20T00:23:00;100530;;;5.2;100.0
68320;BME280;55168;51.120;17.024;2023-04-20T00:24:00;100530;;;5.1;100.0
68320;BME280;55168;51.120;17.024;2023-04-20T00:25:00;100520;;;5.1;100.0
68320;BME280;55168;51.120;17.024;2023-04-20T00:26:00;100530;;;5.1;100.0
68320;BME280;55168;51.120;17.024;2023-04-20T00:27:00;100530;;;5.1;100.0
68320;BME280;55168;51.120;17.024;2023-04-20T00:28:00;100530;;;5.1;100.0
68320;BME280;55168;51.120;17.024;2023-04-20T00:29:00;100530;;;4.9;100.0
68320;BME280;55168;51.120;17.024;2023-04-20T00:30:00;100530;;;4.9;100.0
68320;BME280;55168;51.120;17.024;2023-04-20T00:31:00;100530;;;4.9;100.0
68320;BME280;55168;51.120;17.024;2023-04-20T00:32:00;100530;;;4.8;100.0
68320;BME280;55168;51.120;17.024;2023-04-20T00:33:01;100530;;;4.8;100.0
68320;BME280;55168;51.120;17.024;2023-04-20T00:34:00;100530;;;4.8;100.0
68320;BME280;55168;51.120;17.024;2023-04-20T00:35:00;100530;;;4.8;100.0
68320;BME280;55168;51.120;17.024;2023-04-20T00:36:00;100530;;;4.7;100.0
68320;BME280;55168;51.120;17.024;2023-04-20T00:37:00;100520;;;4.7;100.0
68320;BME280;55168;51.120;17.024;2023-04-20T00:38:00;100530;;;4.7;100.0
68320;BME280;55168;51.120;17.024;2023-04-20T00:39:00;100520;;;4.7;100.0
68320;BME280;55168;51.120;17.024;2023-04-20T00:40:00;100530;;;4.7;100.0
68320;BME280;55168;51.120;17.024;2023-04-20T00:41:00;100530;;;4.7;100.0
68320;BME280;55168;51.120;17.024;2023-04-20T00:42:04;100530;;;4.7;100.0
68320;BME280;55168;51.120;17.024;2023-04-20T00:43:15;100530;;;4.7;100.0
68320;BME280;55168;51.120;17.024;2023-04-20T00:44:00;100530;;;4.7;100.0
68320;BME280;55168;51.120;17.024;2023-04-20T00:45:00;100530;;;4.7;100.0
68320;BME280;55168;51.120;17.024;2023-04-20T00:46:00;100530;;;4.7;100.0
68320;BME280;55168;51.120;17.024;2023-04-20T00:47:00;100530;;;4.7;100.0
68320;BME280;55168;51.120;17.024;2023-04-20T00:48:00;100530;;;4.7;100.0
68320;BME280;55168;51.120;17.024;2023-04-20T00:49:00;100540;;;4.7;100.0
68320;BME280;55168;51.120;17.024;2023-04-20T00:50:00;100530;;;4.7;100.0
68320;BME280;55168;51.120;17.024;2023-04-20T00:51:00;100530;;;4.7;100.0
68320;BME280;55168;51.120;17.024;2023-04-20T00:52:00;100530;;;4.7;100.0
68320;BME280;55168;51.120;17.024;2023-04-20T00:53:00;100530;;;4.7;100.0
68320;BME280;55168;51.120;17.024;2023-04-20T00:54:00;100530;;;4.7;100.0
68320;BME280;55168;51.120;17.024;2023-04-20T00:55:00;100530;;;4.8;100.0
68320;BME280;55168;51.120;17.024;2023-04-20T00:56:00;100530;;;4.8;100.0
68320;BME280;55168;51.120;17.024;2023-04-20T00:57:00;100530;;;4.8;100.0
68320;BME280;55168;51.120;17.024;2023-04-20T00:58:00;100540;;;4.9;100.0
68320;BME280;55168;51.120;17.024;2023-04-20T00:59:00;100540;;;4.9;100.0
68320;BME280;55168;51.120;17.024;2023-04-20T01:00:00;100530;;;4.9;100.0
68320;BME280;55168;51.120;17.024;2023-04-20T01:01:00;100530;;;5.0;100.0
68320;BME280;55168;51.120;17.024;2023-04-20T01:02:00;100530;;;5.0;100.0
68320;BME280;55168;51.120;17.024;2023-04-20T01:03:00;100530;;;5.0;100.0
68320;BME280;55168;51.120;17.024;2023-04-20T01:04:00;100530;;;5.0;100.0
68320;BME280;55168;51.120;17.024;2023-04-20T01:05:00;100530;;;5.0;100.0
68320;BME280;55168;51.120;17.024;2023-04-20T01:06:00;100530;;;4.9;100.0
68320;BME280;55168;51.120;17.024;2023-04-20T01:07:00;100530;;;4.9;100.0
68320;BME280;55168;51.120;17.024;2023-04-20T01:08:00;100530;;;4.9;100.0
68320;BME280;55168;51.120;17.024;2023-04-20T01:09:00;100530;;;5.0;100.0
68320;BME280;55168;51.120;17.024;2023-04-20T01:10:00;100530;;;5.0;100.0
68320;BME280;55168;51.120;17.024;2023-04-20T01:11:00;100530;;;5.0;100.0
68320;BME280;55168;51.120;17.024;2023-04-20T01:12:00;100530;;;4.9;100.0
68320;BME280;55168;51.120;17.024;2023-04-20T01:13:00;100530;;;4.9;100.0
68320;BME280;55168;51.120;17.024;2023-04-20T01:14:00;100530;;;4.9;100.0
68320;BME280;55168;51.120;17.024;2023-04-20T01:15:01;100530;;;4.9;100.0
68320;BME280;55168;51.120;17.024;2023-04-20T01:16:00;100530;;;5.0;100.0
68320;BME280;55168;51.120;17.024;2023-04-20T01:17:00;100530;;;5.0;100.0
68320;BME280;55168;51.120;17.024;2023-04-20T01:18:00;100520;;;5.1;100.0
68320;BME280;55168;51.120;17.024;2023-04-20T01:19:00;100530;;;5.1;100.0
68320;BME280;55168;51.120;17.024;2023-04-20T01:20:00;100520;;;5.1;100.0
68320;BME280;55168;51.120;17.024;2023-04-20T01:21:00;100520;;;5.1;100.0
68320;BME280;55168;51.120;17.024;2023-04-20T01:22:00;100520;;;5.1;100.0
68320;BME280;55168;51.120;17.024;2023-04-20T01:23:00;100510;;;5.1;100.0
68320;BME280;55168;51.120;17.024;2023-04-20T01:24:00;100510;;;5.0;100.0
68320;BME280;55168;51.120;17.024;2023-04-20T01:25:00;100510;;;5.0;100.0
68320;BME280;55168;51.120;17.024;2023-04-20T01:26:00;100510;;;5.0;100.0
68320;BME280;55168;51.120;17.024;2023-04-20T01:27:00;100510;;;5.0;100.0
68320;BME280;55168;51.120;17.024;2023-04-20T01:28:00;100510;;;5.0;100.0
68320;BME280;55168;51.120;17.024;2023-04-20T01:29:00;100520;;;5.0;100.0
68320;BME280;55168;51.120;17.024;2023-04-20T01:30:00;100520;;;5.0;100.0
68320;BME280;55168;51.120;17.024;2023-04-20T01:31:01;100520;;;5.0;100.0
68320;BME280;55168;51.120;17.024;2023-04-20T01:32:00;100520;;;4.9;100.0
68320;BME280;55168;51.120;17.024;2023-04-20T01:33:00;100530;;;4.9;100.0
68320;BME280;55168;51.120;17.024;2023-04-20T01:34:00;100520;;;4.9;100.0
68320;BME280;55168;51.120;17.024;2023-04-20T01:35:00;100530;;;4.9;100.0
68320;BME280;55168;51.120;17.024;2023-04-20T01:36:00;100530;;;4.9;100.0
68320;BME280;55168;51.120;17.024;2023-04-20T01:37:00;100530;;;4.8;100.0
68320;BME280;55168;51.120;17.024;2023-04-20T01:38:00;100530;;;4.8;100.0
68320;BME280;55168;51.120;17.024;2023-04-20T01:39:00;100520;;;4.7;100.0
68320;BME280;55168;51.120;17.024;2023-04-20T01:40:00;100520;;;4.7;100.0
68320;BME280;55168;51.120;17.024;2023-04-20T01:41:01;100520;;;4.7;100.0
68320;BME280;55168;51.120;17.024;2023-04-20T01:42:00;100520;;;4.7;100.0
68320;BME280;55168;51.120;17.024;2023-04-20T01:43:00;100520;;;4.7;100.0
68320;BME280;55168;51.120;17.024;2023-04-20T01:44:00;100520;;;4.7;100.0
68320;BME280;55168;51.120;17.024;2023-04-20T01:45:00;100510;;;4.7;100.0
68320;BME280;55168;51.120;17.024;2023-04-20T01:46:00;100510;;;4.8;100.0
68320;BME280;55168;51.120;17.024;2023-04-20T01:47:00;100510;;;4.9;100.0
68320;BME280;55168;51.120;17.024;2023-04-20T01:48:00;100510;;;4.9;100.0
68320;BME280;55168;51.120;17.024;2023-04-20T01:49:00;100510;;;4.9;100.0
68320;BME280;55168;51.120;17.024;2023-04-20T01:50:00;100510;;;4.9;100.0
68320;BME280;55168;51.120;17.024;2023-04-20T01:51:00;100510;;;4.9;100.0
68320;BME280;55168;51.120;17.024;2023-04-20T01:52:00;100510;;;4.9;100.0
68320;BME280;55168;51.120;17.024;2023-04-20T01:53:00;100510;;;4.9;100.0
68320;BME280;55168;51.120;17.024;2023-04-20T01:54:00;100510;;;4.9;100.0
68320;BME280;55168;51.120;17.024;2023-04-20T01:55:00;100510;;;4.9;100.0
68320;BME280;55168;51.120;17.024;2023-04-20T01:56:00;100510;;;4.9;100.0
68320;BME280;55168;51.120;17.024;2023-04-20T01:57:00;100510;;;4.9;100.0
68320;BME280;55168;51.120;17.024;2023-04-20T01:58:00;100500;;;5.0;100.0
68320;BME280;55168;51.120;17.024;2023-04-20T01:59:00;100510;;;5.0;100.0
68320;BME280;55168;51.120;17.024;2023-04-20T02:00:00;100510;;;5.0;100.0
68320;BME280;55168;51.120;17.024;2023-04-20T02:01:00;100500;;;5.0;100.0
68320;BME280;55168;51.120;17.024;2023-04-20T02:02:00;100500;;;5.0;100.0
68320;BME280;55168;51.120;17.024;2023-04-20T02:03:00;100510;;;5.0;100.0
68320;BME280;55168;51.120;17.024;2023-04-20T02:04:00;100500;;;5.0;100.0
68320;BME280;55168;51.120;17.024;2023-04-20T02:05:00;100510;;;4.9;100.0
68320;BME280;55168;51.120;17.024;2023-04-20T02:06:00;100510;;;4.9;100.0
68320;BME280;55168;51.120;17.024;2023-04-20T02:07:00;100500;;;4.8;100.0
68320;BME280;55168;51.120;17.024;2023-04-20T02:08:00;100510;;;4.7;100.0
68320;BME280;55168;51.120;17.024;2023-04-20T02:09:00;100500;;;4.7;100.0
68320;BME280;55168;51.120;17.024;2023-04-20T02:10:00;100510;;;4.7;100.0
68320;BME280;55168;51.120;17.024;2023-04-20T02:11:00;100500;;;4.7;100.0
68320;BME280;55168;51.120;17.024;2023-04-20T02:12:00;100500;;;4.7;100.0
68320;BME280;55168;51.120;17.024;2023-04-20T02:13:00;100500;;;4.6;100.0
68320;BME280;55168;51.120;17.024;2023-04-20T02:14:00;100500;;;4.6;100.0
68320;BME280;55168;51.120;17.024;2023-04-20T02:15:00;100490;;;4.6;100.0
68320;BME280;55168;51.120;17.024;2023-04-20T02:16:00;100490;;;4.6;100.0
68320;BME280;55168;51.120;17.024;2023-04-20T02:17:00;100490;;;4.6;100.0
68320;BME280;55168;51.120;17.024;2023-04-20T02:18:00;100490;;;4.6;100.0
68320;BME280;55168;51.120;17.024;2023-04-20T02:19:00;100500;;;4.7;100.0
68320;BME280;55168;51.120;17.024;2023-04-20T02:20:00;100500;;;4.7;100.0
68320;BME280;55168;51.120;17.024;2023-04-20T02:21:00;100510;;;4.7;100.0
68320;BME280;55168;51.120;17.024;2023-04-20T02:22:00;100510;;;4.7;100.0
68320;BME280;55168;51.120;17.024;2023-04-20T02:23:00;100510;;;4.7;100.0
68320;BME280;55168;51.120;17.024;2023-04-20T02:24:00;100510;;;4.8;100.0
68320;BME280;55168;51.120;17.024;2023-04-20T02:25:00;100510;;;4.8;100.0
68320;BME280;55168;51.120;17.024;2023-04-20T02:26:00;100510;;;4.8;100.0
68320;BME280;55168;51.120;17.024;2023-04-20T02:27:00;100510;;;4.8;100.0
68320;BME280;55168;51.120;17.024;2023-04-20T02:28:00;100510;;;4.8;100.0
68320;BME280;55168;51.120;17.024;2023-04-20T02:29:00;100500;;;4.9;100.0
68320;BME280;55168;51.120;17.024;2023-04-20T02:30:00;100500;;;4.9;100.0
68320;BME280;55168;51.120;17.024;2023-04-20T02:31:00;100500;;;4.9;100.0
68320;BME280;55168;51.120;17.024;2023-04-20T02:32:00;100500;;;4.9;100.0
68320;BME280;55168;51.120;17.024;2023-04-20T02:33:00;100500;;;4.9;100.0
68320;BME280;55168;51.120;17.024;2023-04-20T02:34:00;100490;;;4.8;100.0
68320;BME280;55168;51.120;17.024;2023-04-20T02:35:00;100490;;;4.8;100.0
68320;BME280;55168;51.120;17.024;2023-04-20T02:36:00;100490;;;4.7;100.0
68320;BME280;55168;51.120;17.024;2023-04-20T02:37:00;100480;;;4.7;100.0
68320;BME280;55168;51.120;17.024;2023-04-20T02:38:00;100480;;;4.7;100.0
68320;BME280;55168;51.120;17.024;2023-04-20T02:39:00;100480;;;4.7;100.0
68320;BME280;55168;51.120;17.024;2023-04-20T02:40:00;100490;;;4.7;100.0
68320;BME280;55168;51.120;17.024;2023-04-20T02:41:00;100490;;;4.7;100.0
68320;BME280;55168;51.120;17.024;2023-04-20T02:42:00;100490;;;4.7;100.0
68320;BME280;55168;51.120;17.024;2023-04-20T02:43:00;100490;;;4.8;100.0
68320;BME280;55168;51.120;17.024;2023-04-20T02:44:00;100490;;;4.8;100.0
68320;BME280;55168;51.120;17.024;2023-04-20T02:45:00;100490;;;4.8;100.0
68320;BME280;55168;51.120;17.024;2023-04-20T02:46:00;100490;;;4.9;100.0
68320;BME280;55168;51.120;17.024;2023-04-20T02:47:00;100500;;;4.9;100.0
68320;BME280;55168;51.120;17.024;2023-04-20T02:48:00;100490;;;4.9;100.0
68320;BME280;55168;51.120;17.024;2023-04-20T02:49:00;100490;;;4.9;100.0
68320;BME280;55168;51.120;17.024;2023-04-20T02:50:00;100500;;;4.9;100.0
68320;BME280;55168;51.120;17.024;2023-04-20T02:51:00;100490;;;4.9;100.0
68320;BME280;55168;51.120;17.024;2023-04-20T02:52:00;100490;;;4.9;100.0
68320;BME280;55168;51.120;17.024;2023-04-20T02:53:00;100490;;;4.9;100.0
68320;BME280;55168;51.120;17.024;2023-04-20T02:54:00;100490;;;4.9;100.0
68320;BME280;55168;51.120;17.024;2023-04-20T02:55:00;100490;;;4.9;100.0
68320;BME280;55168;51.120;17.024;2023-04-20T02:56:00;100490;;;4.9;100.0
68320;BME280;55168;51.120;17.024;2023-04-20T02:57:00;100480;;;4.9;100.0
68320;BME280;55168;51.120;17.024;2023-04-20T02:58:00;100480;;;4.9;100.0
68320;BME280;55168;51.120;17.024;2023-04-20T02:59:00;100480;;;4.9;100.0
68320;BME280;55168;51.120;17.024;2023-04-20T03:00:00;100480;;;4.9;100.0
68320;BME280;55168;51.120;17.024;2023-04-20T03:01:00;100480;;;5.0;100.0
68320;BME280;55168;51.120;17.024;2023-04-20T03:02:00;100480;;;5.0;100.0
68320;BME280;55168;51.120;17.024;2023-04-20T03:03:00;100490;;;5.0;100.0
68320;BME280;55168;51.120;17.024;2023-04-20T03:04:00;100490;;;5.0;100.0
68320;BME280;55168;51.120;17.024;2023-04-20T03:05:00;100490;;;5.0;100.0
68320;BME280;55168;51.120;17.024;2023-04-20T03:06:00;100490;;;5.0;100.0
68320;BME280;55168;51.120;17.024;2023-04-20T03:07:00;100490;;;5.0;100.0
68320;BME280;55168;51.120;17.024;2023-04-20T03:08:00;100490;;;5.0;100.0
68320;BME280;55168;51.120;17.024;2023-04-20T03:09:00;100490;;;5.0;100.0
68320;BME280;55168;51.120;17.024;2023-04-20T03:10:00;100490;;;5.0;100.0
68320;BME280;55168;51.120;17.024;2023-04-20T03:11:00;100490;;;5.0;100.0
68320;BME280;55168;51.120;17.024;2023-04-20T03:12:00;100490;;;5.0;100.0
68320;BME280;55168;51.120;17.024;2023-04-20T03:13:00;100490;;;5.0;100.0
68320;BME280;55168;51.120;17.024;2023-04-20T03:14:00;100490;;;5.0;100.0
68320;BME280;55168;51.120;17.024;2023-04-20T03:15:00;100490;;;5.0;100.0
68320;BME280;55168;51.120;17.024;2023-04-20T03:16:00;100490;;;5.0;100.0
68320;BME280;55168;51.120;17.024;2023-04-20T03:17:00;100490;;;5.0;100.0
68320;BME280;55168;51.120;17.024;2023-04-20T03:18:00;100490;;;5.0;100.0
68320;BME280;55168;51.120;17.024;2023-04-20T03:19:00;100490;;;5.0;100.0
68320;BME280;55168;51.120;17.024;2023-04-20T03:20:00;100490;;;5.0;100.0
68320;BME280;55168;51.120;17.024;2023-04-20T03:21:00;100490;;;5.0;100.0
68320;BME280;55168;51.120;17.024;2023-04-20T03:22:00;100480;;;5.0;100.0
68320;BME280;55168;51.120;17.024;2023-04-20T03:23:00;100490;;;4.9;100.0
68320;BME280;55168;51.120;17.024;2023-04-20T03:24:00;100490;;;5.0;100.0
68320;BME280;55168;51.120;17.024;2023-04-20T03:25:00;100490;;;5.0;100.0
68320;BME280;55168;51.120;17.024;2023-04-20T03:26:00;100490;;;5.0;100.0
68320;BME280;55168;51.120;17.024;2023-04-20T03:27:00;100490;;;4.9;100.0
68320;BME280;55168;51.120;17.024;2023-04-20T03:28:00;100490;;;4.9;100.0
68320;BME280;55168;51.120;17.024;2023-04-20T03:29:00;100490;;;5.0;100.0
68320;BME280;55168;51.120;17.024;2023-04-20T03:30:00;100490;;;4.9;100.0
68320;BME280;55168;51.120;17.024;2023-04-20T03:31:00;100490;;;4.9;100.0
68320;BME280;55168;51.120;17.024;2023-04-20T03:32:00;100490;;;4.9;100.0
68320;BME280;55168;51.120;17.024;2023-04-20T03:33:00;100490;;;4.9;100.0
68320;BME280;55168;51.120;17.024;2023-04-20T03:34:00;100490;;;5.0;100.0
68320;BME280;55168;51.120;17.024;2023-04-20T03:35:00;100490;;;5.0;100.0
68320;BME280;55168;51.120;17.024;2023-04-20T03:36:00;100490;;;5.0;100.0
68320;BME280;55168;51.120;17.024;2023-04-20T03:37:00;100490;;;5.0;100.0
68320;BME280;55168;51.120;17.024;2023-04-20T03:38:00;100490;;;5.0;100.0
68320;BME280;55168;51.120;17.024;2023-04-20T03:39:00;100490;;;5.0;100.0
68320;BME280;55168;51.120;17.024;2023-04-20T03:40:00;100490;;;5.0;100.0
68320;BME280;55168;51.120;17.024;2023-04-20T03:41:00;100490;;;5.0;100.0
68320;BME280;55168;51.120;17.024;2023-04-20T03:42:00;100490;;;4.9;100.0
68320;BME280;55168;51.120;17.024;2023-04-20T03:43:00;100490;;;4.9;100.0
68320;BME280;55168;51.120;17.024;2023-04-20T03:44:00;100500;;;5.0;100.0
68320;BME280;55168;51.120;17.024;2023-04-20T03:45:00;100500;;;5.0;100.0
68320;BME280;55168;51.120;17.024;2023-04-20T03:46:00;100500;;;4.9;100.0
68320;BME280;55168;51.120;17.024;2023-04-20T03:47:00;100500;;;4.9;100.0
68320;BME280;55168;51.120;17.024;2023-04-20T03:48:00;100500;;;4.9;100.0
68320;BME280;55168;51.120;17.024;2023-04-20T03:49:00;100500;;;4.9;100.0
68320;BME280;55168;51.120;17.024;2023-04-20T03:50:00;100500;;;4.9;100.0
68320;BME280;55168;51.120;17.024;2023-04-20T03:51:00;100510;;;4.9;100.0
68320;BME280;55168;51.120;17.024;2023-04-20T03:52:00;100510;;;5.0;100.0
68320;BME280;55168;51.120;17.024;2023-04-20T03:53:00;100510;;;5.0;100.0
68320;BME280;55168;51.120;17.024;2023-04-20T03:54:00;100500;;;5.0;100.0
68320;BME280;55168;51.120;17.024;2023-04-20T03:55:00;100500;;;5.0;100.0
68320;BME280;55168;51.120;17.024;2023-04-20T03:56:00;100510;;;5.0;100.0
68320;BME280;55168;51.120;17.024;2023-04-20T03:57:00;100500;;;5.0;100.0
68320;BME280;55168;51.120;17.024;2023-04-20T03:58:00;100500;;;5.1;100.0
68320;BME280;55168;51.120;17.024;2023-04-20T03:59:00;100500;;;5.0;100.0
68320;BME280;55168;51.120;17.024;2023-04-20T04:00:00;100500;;;5.0;100.0
68320;BME280;55168;51.120;17.024;2023-04-20T04:01:02;100500;;;5.0;100.0
68320;BME280;55168;51.120;17.024;2023-04-20T04:02:00;100500;;;5.0;100.0
68320;BME280;55168;51.120;17.024;2023-04-20T04:03:00;100500;;;5.0;100.0
68320;BME280;55168;51.120;17.024;2023-04-20T04:04:00;100500;;;5.0;100.0
68320;BME280;55168;51.120;17.024;2023-04-20T04:05:00;100500;;;5.0;100.0
68320;BME280;55168;51.120;17.024;2023-04-20T04:06:00;100500;;;5.0;100.0
68320;BME280;55168;51.120;17.024;2023-04-20T04:07:00;100510;;;5.0;100.0
68320;BME280;55168;51.120;17.024;2023-04-20T04:08:00;100510;;;5.0;100.0
68320;BME280;55168;51.120;17.024;2023-04-20T04:09:01;100500;;;5.0;100.0
68320;BME280;55168;51.120;17.024;2023-04-20T04:10:00;100500;;;5.0;100.0
68320;BME280;55168;51.120;17.024;2023-04-20T04:11:00;100510;;;5.0;100.0
68320;BME280;55168;51.120;17.024;2023-04-20T04:12:00;100510;;;5.0;100.0
68320;BME280;55168;51.120;17.024;2023-04-20T04:13:00;100510;;;5.0;100.0
68320;BME280;55168;51.120;17.024;2023-04-20T04:14:00;100510;;;5.0;100.0
68320;BME280;55168;51.120;17.024;2023-04-20T04:15:00;100520;;;5.0;100.0
68320;BME280;55168;51.120;17.024;2023-04-20T04:16:00;100510;;;5.0;100.0
68320;BME280;55168;51.120;17.024;2023-04-20T04:17:00;100510;;;5.0;100.0
68320;BME280;55168;51.120;17.024;2023-04-20T04:18:00;100510;;;5.0;100.0
68320;BME280;55168;51.120;17.024;2023-04-20T04:19:00;100510;;;5.1;100.0
68320;BME280;55168;51.120;17.024;2023-04-20T04:20:00;100510;;;5.0;100.0
68320;BME280;55168;51.120;17.024;2023-04-20T04:21:00;100510;;;5.1;100.0
68320;BME280;55168;51.120;17.024;2023-04-20T04:22:00;100510;;;5.1;100.0
68320;BME280;55168;51.120;17.024;2023-04-20T04:23:00;100510;;;5.1;100.0
68320;BME280;55168;51.120;17.024;2023-04-20T04:24:00;100510;;;5.1;100.0
68320;BME280;55168;51.120;17.024;2023-04-20T04:25:00;100510;;;5.1;100.0
68320;BME280;55168;51.120;17.024;2023-04-20T04:26:00;100510;;;5.1;100.0
68320;BME280;55168;51.120;17.024;2023-04-20T04:27:00;100510;;;5.0;100.0
68320;BME280;55168;51.120;17.024;2023-04-20T04:28:00;100510;;;4.9;100.0
68320;BME280;55168;51.120;17.024;2023-04-20T04:29:00;100510;;;4.9;100.0
68320;BME280;55168;51.120;17.024;2023-04-20T04:30:00;100510;;;5.0;100.0
68320;BME280;55168;51.120;17.024;2023-04-20T04:31:00;100510;;;5.0;100.0
68320;BME280;55168;51.120;17.024;2023-04-20T04:32:01;100510;;;5.1;100.0
68320;BME280;55168;51.120;17.024;2023-04-20T04:33:00;100510;;;5.0;100.0
68320;BME280;55168;51.120;17.024;2023-04-20T04:34:00;100510;;;4.9;100.0
68320;BME280;55168;51.120;17.024;2023-04-20T04:35:00;100520;;;4.9;100.0
68320;BME280;55168;51.120;17.024;2023-04-20T04:36:00;100520;;;4.9;100.0
68320;BME280;55168;51.120;17.024;2023-04-20T04:37:00;100510;;;4.8;100.0
68320;BME280;55168;51.120;17.024;2023-04-20T04:38:00;100520;;;4.9;100.0
68320;BME280;55168;51.120;17.024;2023-04-20T04:39:00;100520;;;4.9;100.0
68320;BME280;55168;51.120;17.024;2023-04-20T04:40:00;100520;;;4.9;100.0
68320;BME280;55168;51.120;17.024;2023-04-20T04:41:00;100520;;;5.0;100.0
68320;BME280;55168;51.120;17.024;2023-04-20T04:42:00;100520;;;5.0;100.0
68320;BME280;55168;51.120;17.024;2023-04-20T04:43:00;100520;;;5.0;100.0
68320;BME280;55168;51.120;17.024;2023-04-20T04:44:00;100520;;;5.1;100.0
68320;BME280;55168;51.120;17.024;2023-04-20T04:45:00;100520;;;5.1;100.0
68320;BME280;55168;51.120;17.024;2023-04-20T04:46:04;100520;;;5.1;100.0
68320;BME280;55168;51.120;17.024;2023-04-20T04:47:01;100520;;;5.1;100.0
68320;BME280;55168;51.120;17.024;2023-04-20T04:48:00;100520;;;5.2;100.0
68320;BME280;55168;51.120;17.024;2023-04-20T04:49:00;100520;;;5.2;100.0
68320;BME280;55168;51.120;17.024;2023-04-20T04:50:03;100530;;;5.2;100.0
68320;BME280;55168;51.120;17.024;2023-04-20T04:51:00;100530;;;5.2;100.0
68320;BME280;55168;51.120;17.024;2023-04-20T04:52:00;100530;;;5.2;100.0
68320;BME280;55168;51.120;17.024;2023-04-20T04:53:00;100530;;;5.2;100.0
68320;BME280;55168;51.120;17.024;2023-04-20T04:54:00;100530;;;5.3;100.0
68320;BME280;55168;51.120;17.024;2023-04-20T04:55:01;100530;;;5.3;100.0
68320;BME280;55168;51.120;17.024;2023-04-20T04:56:00;100530;;;5.3;100.0
68320;BME280;55168;51.120;17.024;2023-04-20T04:57:00;100530;;;5.3;100.0
68320;BME280;55168;51.120;17.024;2023-04-20T04:58:00;100530;;;5.2;100.0
68320;BME280;55168;51.120;17.024;2023-04-20T04:59:00;100530;;;5.2;100.0
68320;BME280;55168;51.120;17.024;2023-04-20T05:00:00;100530;;;5.2;100.0
68320;BME280;55168;51.120;17.024;2023-04-20T05:01:00;100520;;;5.2;100.0
68320;BME280;55168;51.120;17.024;2023-04-20T05:02:00;100520;;;5.2;100.0
68320;BME280;55168;51.120;17.024;2023-04-20T05:03:00;100520;;;5.2;100.0
68320;BME280;55168;51.120;17.024;2023-04-20T05:04:00;100520;;;5.2;100.0
68320;BME280;55168;51.120;17.024;2023-04-20T05:05:00;100520;;;5.1;100.0
68320;BME280;55168;51.120;17.024;2023-04-20T05:06:00;100520;;;5.1;100.0
68320;BME280;55168;51.120;17.024;2023-04-20T05:07:00;100520;;;5.1;100.0
68320;BME280;55168;51.120;17.024;2023-04-20T05:08:00;100520;;;5.2;100.0
68320;BME280;55168;51.120;17.024;2023-04-20T05:09:00;100520;;;5.2;100.0
68320;BME280;55168;51.120;17.024;2023-04-20T05:10:00;100520;;;5.2;100.0
68320;BME280;55168;51.120;17.024;2023-04-20T05:11:00;100520;;;5.2;100.0
68320;BME280;55168;51.120;17.024;2023-04-20T05:12:00;100520;;;5.2;100.0
68320;BME280;55168;51.120;17.024;2023-04-20T05:13:00;100520;;;5.3;100.0
68320;BME280;55168;51.120;17.024;2023-04-20T05:14:00;100520;;;5.3;100.0
68320;BME280;55168;51.120;17.024;2023-04-20T05:15:00;100520;;;5.3;100.0
68320;BME280;55168;51.120;17.024;2023-04-20T05:16:00;100530;;;5.3;100.0
68320;BME280;55168;51.120;17.024;2023-04-20T05:17:00;100530;;;5.4;100.0
68320;BME280;55168;51.120;17.024;2023-04-20T05:18:00;100530;;;5.4;100.0
68320;BME280;55168;51.120;17.024;2023-04-20T05:19:00;100530;;;5.5;100.0
68320;BME280;55168;51.120;17.024;2023-04-20T05:20:00;100540;;;5.5;100.0
68320;BME280;55168;51.120;17.024;2023-04-20T05:21:00;100540;;;5.5;100.0
68320;BME280;55168;51.120;17.024;2023-04-20T05:22:00;100530;;;5.5;100.0
68320;BME280;55168;51.120;17.024;2023-04-20T05:23:00;100540;;;5.5;100.0
68320;BME280;55168;51.120;17.024;2023-04-20T05:24:00;100530;;;5.5;100.0
68320;BME280;55168;51.120;17.024;2023-04-20T05:25:00;100530;;;5.6;100.0
68320;BME280;55168;51.120;17.024;2023-04-20T05:26:00;100530;;;5.6;100.0
68320;BME280;55168;51.120;17.024;2023-04-20T05:27:00;100530;;;5.6;100.0
68320;BME280;55168;51.120;17.024;2023-04-20T05:28:00;100530;;;5.6;100.0
68320;BME280;55168;51.120;17.024;2023-04-20T05:29:00;100530;;;5.4;100.0
68320;BME280;55168;51.120;17.024;2023-04-20T05:30:00;100540;;;5.3;100.0